createdAt,value
2019-04-30T00:00:38.267Z,11.30
2019-04-30T00:03:19.444Z,11.20
2019-04-30T00:05:49.419Z,11.20
2019-04-30T00:08:17.888Z,11.30
2019-04-30T00:10:47.240Z,11.20
2019-04-30T00:13:20.691Z,11.20
2019-04-30T00:15:47.867Z,11.30
2019-04-30T00:18:18.655Z,11.30
2019-04-30T00:20:47.972Z,11.20
2019-04-30T00:23:18.092Z,11.10
2019-04-30T00:25:48.355Z,11.10
2019-04-30T00:28:17.650Z,11.20
2019-04-30T00:30:47.831Z,11.10
2019-04-30T00:33:22.144Z,11.10
2019-04-30T00:35:49.759Z,11.00
2019-04-30T00:38:19.879Z,11.10
2019-04-30T00:40:49.267Z,11.10
2019-04-30T00:43:18.614Z,11.00
2019-04-30T00:45:47.936Z,11.00
2019-04-30T00:48:26.909Z,11.00
2019-04-30T00:50:48.696Z,11.00
2019-04-30T00:53:18.055Z,11.00
2019-04-30T00:55:48.545Z,11.10
2019-04-30T00:58:24.972Z,11.10
2019-04-30T01:02:01.900Z,11.10
2019-04-30T01:04:38.972Z,11.10
2019-04-30T01:07:09.871Z,11.10
2019-04-30T01:09:39.590Z,11.10
2019-04-30T01:12:10.474Z,11.00
2019-04-30T01:14:39.889Z,11.00
2019-04-30T01:17:12.321Z,11.00
2019-04-30T01:19:40.672Z,11.00
2019-04-30T01:22:10.128Z,11.10
2019-04-30T01:24:39.524Z,11.00
2019-04-30T01:27:10.557Z,11.10
2019-04-30T01:29:44.125Z,11.10
2019-04-30T01:32:17.596Z,11.00
2019-04-30T01:34:44.365Z,11.10
2019-04-30T01:37:14.172Z,11.10
2019-04-30T01:39:43.477Z,11.00
2019-04-30T01:42:12.851Z,11.00
2019-04-30T01:44:43.498Z,11.00
2019-04-30T01:47:13.463Z,11.00
2019-04-30T01:49:44.818Z,11.10
2019-04-30T01:52:13.871Z,11.10
2019-04-30T01:54:43.178Z,11.10
2019-04-30T01:57:14.140Z,11.10
2019-04-30T02:00:03.371Z,11.10
2019-04-30T02:02:43.461Z,11.00
2019-04-30T02:05:12.881Z,11.00
2019-04-30T02:07:42.473Z,11.10
2019-04-30T02:10:11.993Z,11.00
2019-04-30T02:12:41.394Z,11.00
2019-04-30T02:15:11.247Z,10.90
2019-04-30T02:17:43.246Z,11.00
2019-04-30T02:20:15.534Z,11.00
2019-04-30T02:22:44.861Z,11.00
2019-04-30T02:25:14.638Z,11.00
2019-04-30T02:27:44.024Z,10.90
2019-04-30T02:30:13.631Z,10.90
2019-04-30T02:38:10.053Z,11.00
2019-04-30T02:39:22.693Z,11.00
2019-04-30T02:41:55.123Z,11.00
2019-04-30T02:44:29.200Z,11.00
2019-04-30T02:47:00.809Z,11.00
2019-04-30T02:49:32.454Z,10.90
2019-04-30T02:52:04.937Z,10.90
2019-04-30T02:54:39.442Z,10.80
2019-04-30T02:57:11.698Z,10.80
2019-04-30T03:00:00.073Z,10.90
2019-04-30T03:02:30.388Z,10.90
2019-04-30T03:05:00.349Z,10.90
2019-04-30T03:07:30.685Z,10.90
2019-04-30T03:10:00.330Z,10.90
2019-04-30T03:12:30.546Z,10.80
2019-04-30T03:15:01.021Z,10.80
2019-04-30T03:17:40.949Z,10.80
2019-04-30T03:20:20.215Z,10.80
2019-04-30T03:22:43.589Z,10.80
2019-04-30T03:25:13.434Z,10.80
2019-04-30T03:27:43.130Z,10.80
2019-04-30T03:30:13.285Z,10.80
2019-04-30T03:32:43.550Z,10.70
2019-04-30T03:35:13.632Z,10.70
2019-04-30T03:37:42.933Z,10.60
2019-04-30T03:40:13.242Z,10.60
2019-04-30T03:42:42.844Z,10.60
2019-04-30T03:45:12.309Z,10.70
2019-04-30T03:47:43.213Z,10.70
2019-04-30T03:50:12.798Z,10.60
2019-04-30T03:52:42.140Z,10.60
2019-04-30T03:55:11.492Z,10.60
2019-04-30T03:57:41.030Z,10.60
2019-04-30T04:00:12.977Z,10.60
2019-04-30T04:02:46.820Z,10.60
2019-04-30T04:05:23.895Z,10.60
2019-04-30T04:07:54.908Z,10.60
2019-04-30T04:10:40.546Z,10.60
2019-04-30T04:13:10.498Z,10.60
2019-04-30T04:15:40.263Z,10.60
2019-04-30T04:18:10.625Z,10.60
2019-04-30T04:20:42.928Z,10.60
2019-04-30T04:23:11.450Z,10.50
2019-04-30T04:25:40.862Z,10.50
2019-04-30T04:28:10.271Z,10.40
2019-04-30T04:30:42.859Z,10.50
2019-04-30T04:33:10.525Z,10.50
2019-04-30T04:35:40.672Z,10.50
2019-04-30T04:38:12.625Z,10.50
2019-04-30T04:40:41.349Z,10.40
2019-04-30T04:43:10.693Z,10.40
2019-04-30T04:45:43.705Z,10.40
2019-04-30T04:48:13.056Z,10.40
2019-04-30T04:50:42.507Z,10.40
2019-04-30T04:53:14.857Z,10.50
2019-04-30T04:55:44.585Z,10.40
2019-04-30T05:06:46.697Z,10.50
2019-04-30T05:09:16.373Z,10.50
2019-04-30T05:11:45.748Z,10.50
2019-04-30T05:14:15.102Z,10.40
2019-04-30T05:16:44.422Z,10.40
2019-04-30T05:19:13.720Z,10.30
2019-04-30T05:21:44.853Z,10.40
2019-04-30T05:24:14.946Z,10.30
2019-04-30T05:26:44.450Z,10.20
2019-04-30T05:29:13.848Z,10.20
2019-04-30T05:31:43.148Z,10.10
2019-04-30T05:34:12.461Z,10.20
2019-04-30T05:36:41.849Z,10.20
2019-04-30T05:39:11.113Z,10.30
2019-04-30T05:41:41.101Z,10.20
2019-04-30T05:44:10.881Z,10.20
2019-04-30T05:46:40.206Z,10.30
2019-04-30T05:49:09.769Z,10.30
2019-04-30T05:51:39.486Z,10.30
2019-04-30T05:54:09.142Z,10.30
2019-04-30T05:56:39.904Z,10.30
2019-04-30T05:59:09.630Z,10.30
2019-04-30T06:01:39.487Z,10.30
2019-04-30T06:04:09.554Z,10.40
2019-04-30T06:06:39.197Z,10.40
2019-04-30T06:09:14.749Z,10.50
2019-04-30T06:11:43.201Z,10.50
2019-04-30T06:14:33.386Z,10.50
2019-04-30T06:17:04.382Z,10.60
2019-04-30T06:19:34.315Z,10.50
2019-04-30T06:22:07.823Z,10.50
2019-04-30T06:24:35.328Z,10.50
2019-04-30T06:27:05.663Z,10.40
2019-04-30T06:29:36.019Z,10.40
2019-04-30T06:32:05.492Z,10.60
2019-04-30T06:34:35.333Z,10.60
2019-04-30T06:37:04.988Z,10.60
2019-04-30T06:39:34.458Z,10.70
2019-04-30T06:42:08.823Z,10.80
2019-04-30T06:44:39.267Z,10.80
2019-04-30T06:47:09.121Z,10.90
2019-04-30T06:49:39.397Z,11.00
2019-04-30T06:52:20.331Z,10.90
2019-04-30T06:54:40.328Z,10.90
2019-04-30T06:57:12.020Z,10.90
2019-04-30T06:59:41.085Z,11.10
2019-04-30T07:02:10.670Z,11.10
2019-04-30T07:04:40.265Z,11.20
2019-04-30T07:07:09.884Z,11.20
2019-04-30T07:09:58.595Z,11.10
2019-04-30T07:12:44.225Z,11.20
2019-04-30T07:15:14.348Z,11.30
2019-04-30T07:17:43.663Z,11.40
2019-04-30T07:20:13.458Z,11.30
2019-04-30T07:22:50.587Z,11.30
2019-04-30T07:25:13.881Z,11.40
2019-04-30T07:27:43.281Z,11.30
2019-04-30T07:30:15.843Z,11.40
2019-04-30T07:32:45.466Z,11.40
2019-04-30T07:35:15.383Z,11.50
2019-04-30T07:37:44.681Z,11.60
2019-04-30T07:40:14.118Z,11.60
2019-04-30T07:42:45.077Z,11.50
2019-04-30T07:45:14.625Z,11.70
2019-04-30T07:47:43.933Z,11.80
2019-04-30T07:50:14.288Z,11.80
2019-04-30T07:53:01.008Z,11.80
2019-04-30T07:55:15.101Z,11.90
2019-04-30T07:57:44.443Z,11.90
2019-04-30T08:00:16.830Z,11.80
2019-04-30T08:02:50.445Z,11.90
2019-04-30T08:05:20.539Z,12.00
2019-04-30T08:07:49.948Z,12.20
2019-04-30T08:10:19.274Z,12.20
2019-04-30T08:12:50.503Z,11.90
2019-04-30T08:15:20.033Z,11.90
2019-04-30T08:18:02.228Z,11.90
2019-04-30T08:20:20.508Z,11.90
2019-04-30T08:22:49.851Z,12.00
2019-04-30T08:25:21.928Z,11.90
2019-04-30T08:27:53.316Z,11.90
2019-04-30T08:30:26.802Z,11.90
2019-04-30T08:32:53.665Z,12.00
2019-04-30T08:35:23.033Z,12.10
2019-04-30T08:37:52.366Z,12.00
2019-04-30T08:40:21.983Z,12.10
2019-04-30T08:42:51.333Z,12.10
2019-04-30T08:45:21.084Z,12.20
2019-04-30T08:47:50.450Z,12.50
2019-04-30T08:50:20.999Z,12.50
2019-04-30T08:52:50.896Z,12.50
2019-04-30T08:55:22.452Z,12.70
2019-04-30T08:57:51.807Z,12.70
2019-04-30T09:00:21.268Z,12.70
2019-04-30T09:02:50.613Z,12.80
2019-04-30T09:05:28.708Z,12.70
2019-04-30T09:07:59.799Z,13.00
2019-04-30T09:10:29.460Z,12.90
2019-04-30T09:12:59.794Z,12.80
2019-04-30T09:15:29.326Z,12.90
2019-04-30T09:18:05.802Z,12.90
2019-04-30T09:20:30.072Z,13.00
2019-04-30T09:22:59.674Z,13.10
2019-04-30T09:25:29.241Z,13.30
2019-04-30T09:27:58.950Z,13.50
2019-04-30T09:30:29.954Z,13.30
2019-04-30T09:32:59.594Z,13.10
2019-04-30T09:35:31.783Z,12.80
2019-04-30T09:38:02.015Z,13.00
2019-04-30T09:40:32.637Z,13.10
2019-04-30T09:43:02.186Z,13.10
2019-04-30T09:45:31.818Z,13.10
2019-04-30T09:48:01.118Z,13.20
2019-04-30T09:50:30.656Z,13.20
2019-04-30T09:53:00.818Z,13.30
2019-04-30T09:55:30.431Z,13.40
2019-04-30T09:58:13.977Z,13.50
2019-04-30T10:00:32.512Z,13.40
2019-04-30T10:03:02.059Z,13.30
2019-04-30T10:05:31.652Z,13.40
2019-04-30T10:08:00.978Z,13.40
2019-04-30T10:10:32.060Z,13.40
2019-04-30T10:13:01.480Z,13.20
2019-04-30T10:15:35.144Z,13.20
2019-04-30T10:18:05.127Z,13.30
2019-04-30T10:20:43.558Z,13.50
2019-04-30T10:23:13.765Z,13.70
2019-04-30T10:25:43.145Z,13.90
2019-04-30T10:28:12.513Z,13.70
2019-04-30T10:30:42.059Z,13.50
2019-04-30T10:33:11.369Z,13.40
2019-04-30T10:35:40.764Z,13.40
2019-04-30T10:38:10.164Z,13.40
2019-04-30T10:40:39.505Z,13.50
2019-04-30T10:43:09.294Z,13.70
2019-04-30T10:45:39.809Z,13.80
2019-04-30T10:48:09.105Z,13.80
2019-04-30T10:50:40.765Z,13.90
2019-04-30T10:53:12.242Z,14.10
2019-04-30T10:55:40.516Z,14.10
2019-04-30T10:58:10.132Z,14.40
2019-04-30T11:00:42.567Z,14.70
2019-04-30T11:03:20.057Z,14.70
2019-04-30T11:05:43.659Z,14.60
2019-04-30T11:08:13.058Z,14.50
2019-04-30T11:10:42.407Z,14.60
2019-04-30T11:13:11.758Z,14.50
2019-04-30T11:15:41.340Z,14.40
2019-04-30T11:18:10.822Z,14.60
2019-04-30T11:20:40.639Z,14.70
2019-04-30T11:23:14.705Z,14.90
2019-04-30T11:25:42.237Z,15.10
2019-04-30T11:28:12.848Z,15.10
2019-04-30T11:30:43.747Z,15.40
2019-04-30T11:33:13.559Z,15.70
2019-04-30T11:35:42.990Z,15.60
2019-04-30T11:38:12.354Z,15.50
2019-04-30T11:40:41.658Z,15.60
2019-04-30T11:43:11.008Z,15.50
2019-04-30T11:46:00.053Z,15.60
2019-04-30T11:48:28.926Z,15.80
2019-04-30T11:50:59.520Z,16.00
2019-04-30T11:53:30.723Z,15.90
2019-04-30T11:56:00.139Z,15.60
2019-04-30T11:58:30.606Z,15.60
2019-04-30T12:01:00.318Z,15.70
2019-04-30T12:03:30.388Z,15.70
2019-04-30T12:05:59.753Z,15.90
2019-04-30T12:08:30.695Z,16.30
2019-04-30T12:11:07.379Z,16.10
2019-04-30T12:13:36.682Z,16.10
2019-04-30T12:16:06.049Z,16.50
2019-04-30T12:18:35.430Z,16.70
2019-04-30T12:21:05.241Z,16.90
2019-04-30T12:23:34.541Z,16.90
2019-04-30T12:26:04.190Z,17.20
2019-04-30T12:28:33.738Z,17.40
2019-04-30T12:31:05.785Z,17.70
2019-04-30T12:33:34.169Z,17.80
2019-04-30T12:36:06.286Z,18.00
2019-04-30T12:38:35.055Z,18.10
2019-04-30T12:41:05.136Z,17.50
2019-04-30T12:43:34.435Z,17.80
2019-04-30T12:46:05.568Z,17.40
2019-04-30T12:48:51.630Z,17.60
2019-04-30T12:51:25.335Z,17.70
2019-04-30T12:53:56.278Z,18.00
2019-04-30T12:56:43.411Z,18.20
2019-04-30T12:59:12.707Z,17.90
2019-04-30T13:01:42.177Z,18.00
2019-04-30T13:04:11.521Z,17.80
2019-04-30T13:06:41.286Z,17.90
2019-04-30T13:09:12.227Z,18.10
2019-04-30T13:11:42.739Z,18.70
2019-04-30T13:14:12.936Z,19.00
2019-04-30T13:16:42.557Z,19.10
2019-04-30T13:19:11.897Z,19.10
2019-04-30T13:21:41.199Z,19.20
2019-04-30T13:24:10.851Z,18.90
2019-04-30T13:26:40.201Z,19.50
2019-04-30T13:29:13.872Z,19.40
2019-04-30T13:31:43.474Z,19.50
2019-04-30T13:34:31.024Z,19.10
2019-04-30T13:37:00.734Z,19.10
2019-04-30T13:39:31.674Z,19.30
2019-04-30T13:42:14.833Z,19.80
2019-04-30T13:44:35.580Z,19.90
2019-04-30T13:47:04.888Z,20.10
2019-04-30T13:49:34.231Z,19.50
2019-04-30T13:52:03.602Z,20.10
2019-04-30T13:54:32.901Z,20.10
2019-04-30T13:57:02.247Z,19.70
2019-04-30T13:59:31.892Z,20.30
2019-04-30T14:02:01.226Z,20.10
2019-04-30T14:04:32.217Z,20.20
2019-04-30T14:07:05.584Z,20.40
2019-04-30T14:09:34.985Z,20.40
2019-04-30T14:12:04.651Z,20.20
2019-04-30T14:14:34.026Z,19.60
2019-04-30T14:17:03.433Z,19.20
2019-04-30T14:19:32.773Z,18.80
2019-04-30T14:22:02.075Z,19.10
2019-04-30T14:24:31.386Z,19.80
2019-04-30T14:27:00.830Z,20.10
2019-04-30T14:29:30.301Z,20.50
2019-04-30T14:31:59.582Z,20.70
2019-04-30T14:34:29.255Z,20.80
2019-04-30T14:36:59.367Z,20.50
2019-04-30T14:39:29.377Z,19.90
2019-04-30T14:42:00.149Z,20.50
2019-04-30T14:44:32.472Z,20.90
2019-04-30T14:47:04.568Z,21.00
2019-04-30T14:49:42.245Z,21.10
2019-04-30T14:52:12.530Z,20.90
2019-04-30T14:54:43.507Z,21.10
2019-04-30T14:57:30.946Z,21.10
2019-04-30T15:00:18.050Z,20.80
2019-04-30T15:02:50.282Z,20.20
2019-04-30T15:05:19.669Z,20.70
2019-04-30T15:07:48.924Z,20.70
2019-04-30T15:10:18.410Z,20.90
2019-04-30T15:12:47.739Z,21.00
2019-04-30T15:15:19.217Z,21.20
2019-04-30T15:17:49.301Z,21.00
2019-04-30T15:20:19.726Z,21.40
2019-04-30T15:23:05.569Z,21.10
2019-04-30T15:25:34.942Z,20.40
2019-04-30T15:28:04.274Z,20.00
2019-04-30T15:30:33.628Z,20.40
2019-04-30T15:33:19.761Z,20.10
2019-04-30T15:35:50.369Z,20.60
2019-04-30T15:38:21.357Z,20.70
2019-04-30T15:40:51.531Z,20.50
2019-04-30T15:43:21.226Z,20.90
2019-04-30T15:45:50.829Z,21.00
2019-04-30T15:48:20.166Z,21.00
2019-04-30T15:50:49.554Z,20.60
2019-04-30T15:53:19.381Z,20.80
2019-04-30T15:55:48.815Z,20.60
2019-04-30T15:58:22.393Z,21.00
2019-04-30T16:00:51.768Z,21.00
2019-04-30T16:03:28.518Z,20.90
2019-04-30T16:05:57.804Z,20.60
2019-04-30T16:08:31.505Z,20.70
2019-04-30T16:11:20.734Z,20.90
2019-04-30T16:14:08.376Z,20.40
2019-04-30T16:16:39.536Z,20.20
2019-04-30T16:19:09.194Z,20.60
2019-04-30T16:21:38.622Z,20.30
2019-04-30T16:24:08.714Z,20.20
2019-04-30T16:26:49.340Z,20.30
2019-04-30T16:29:10.005Z,19.80
2019-04-30T16:31:39.588Z,20.00
2019-04-30T16:34:09.172Z,19.90
2019-04-30T16:36:39.011Z,19.60
2019-04-30T16:39:10.043Z,19.60
2019-04-30T16:41:40.827Z,19.90
2019-04-30T16:44:10.329Z,19.70
2019-04-30T16:46:39.694Z,19.50
2019-04-30T16:49:10.175Z,19.60
2019-04-30T16:51:40.402Z,19.50
2019-04-30T16:54:09.856Z,19.50
2019-04-30T16:56:39.163Z,19.00
2019-04-30T16:59:10.150Z,18.70
2019-04-30T17:01:39.631Z,18.80
2019-04-30T17:04:16.550Z,18.80
2019-04-30T17:07:04.168Z,18.80
2019-04-30T17:09:43.956Z,18.70
2019-04-30T17:12:26.902Z,18.70
2019-04-30T17:15:14.162Z,18.40
2019-04-30T17:17:43.766Z,18.20
2019-04-30T17:20:14.170Z,18.00
2019-04-30T17:22:43.518Z,17.90
2019-04-30T17:25:15.295Z,17.80
2019-04-30T17:27:44.629Z,17.70
2019-04-30T17:30:15.239Z,17.80
2019-04-30T17:32:44.588Z,17.80
2019-04-30T17:35:15.132Z,17.70
2019-04-30T17:37:44.723Z,17.80
2019-04-30T17:40:14.889Z,17.30
2019-04-30T17:42:44.207Z,17.10
2019-04-30T17:45:14.414Z,17.10
2019-04-30T17:47:46.534Z,17.10
2019-04-30T17:50:18.605Z,17.10
2019-04-30T17:52:47.574Z,16.90
2019-04-30T17:55:19.336Z,16.50
2019-04-30T17:57:48.805Z,16.60
2019-04-30T18:00:22.107Z,16.30
2019-04-30T18:02:50.321Z,16.30
2019-04-30T18:05:20.033Z,16.20
2019-04-30T18:07:49.904Z,16.10
2019-04-30T18:10:20.368Z,16.10
2019-04-30T18:12:49.669Z,16.10
2019-04-30T18:15:21.450Z,16.00
2019-04-30T18:17:55.386Z,15.80
2019-04-30T18:20:29.358Z,15.70
2019-04-30T18:23:16.682Z,15.50
2019-04-30T18:25:47.632Z,15.50
2019-04-30T18:28:18.985Z,15.50
2019-04-30T18:30:49.086Z,15.50
2019-04-30T18:33:18.995Z,15.40
2019-04-30T18:35:48.738Z,15.40
2019-04-30T18:38:18.302Z,15.30
2019-04-30T18:40:49.485Z,15.10
2019-04-30T18:43:20.546Z,14.80
2019-04-30T18:45:49.787Z,14.90
2019-04-30T18:48:19.607Z,14.80
2019-04-30T18:50:48.947Z,14.80
2019-04-30T18:53:19.955Z,14.70
2019-04-30T18:55:50.738Z,14.60
2019-04-30T18:58:20.477Z,14.70
2019-04-30T19:00:49.983Z,14.60
2019-04-30T19:03:21.779Z,14.60
2019-04-30T19:05:52.274Z,14.50
2019-04-30T19:08:29.458Z,14.40
2019-04-30T19:11:00.781Z,14.40
2019-04-30T19:13:31.795Z,14.30
2019-04-30T19:16:24.650Z,14.20
2019-04-30T19:19:00.974Z,14.20
2019-04-30T19:21:33.434Z,14.10
2019-04-30T19:24:02.810Z,14.10
2019-04-30T19:26:32.146Z,14.10
2019-04-30T19:29:01.747Z,14.00
2019-04-30T19:31:31.047Z,13.90
2019-04-30T19:34:00.351Z,13.90
2019-04-30T19:36:37.215Z,13.80
2019-04-30T19:39:00.750Z,13.70
2019-04-30T19:41:30.292Z,13.60
2019-04-30T19:43:59.931Z,13.60
2019-04-30T19:46:29.473Z,13.50
2019-04-30T19:48:59.003Z,13.50
2019-04-30T19:51:29.657Z,13.50
2019-04-30T19:53:59.881Z,13.50
2019-04-30T19:56:32.537Z,13.50
2019-04-30T19:59:05.305Z,13.50
2019-04-30T20:01:31.531Z,13.50
2019-04-30T20:04:00.840Z,13.30
2019-04-30T20:06:30.214Z,13.20
2019-04-30T20:09:00.773Z,13.20
2019-04-30T20:11:30.704Z,13.10
2019-04-30T20:14:00.102Z,12.90
2019-04-30T20:16:29.405Z,12.90
2019-04-30T20:18:59.197Z,12.80
2019-04-30T20:21:45.394Z,12.90
2019-04-30T20:23:59.901Z,12.80
2019-04-30T20:26:29.203Z,12.70
2019-04-30T20:28:59.102Z,12.70
2019-04-30T20:31:28.846Z,12.60
2019-04-30T20:33:59.111Z,12.60
2019-04-30T20:36:29.536Z,12.50
2019-04-30T20:39:00.480Z,12.60
2019-04-30T20:41:31.441Z,12.50
2019-04-30T20:44:00.767Z,12.40
2019-04-30T20:46:34.949Z,12.30
2019-04-30T20:49:01.364Z,12.30
2019-04-30T20:51:30.728Z,12.20
2019-04-30T20:54:00.030Z,12.20
2019-04-30T20:56:29.331Z,12.20
2019-04-30T20:59:04.111Z,12.10
2019-04-30T21:01:30.176Z,12.20
2019-04-30T21:03:59.506Z,12.10
2019-04-30T21:06:29.732Z,12.10
2019-04-30T21:08:59.362Z,12.00
2019-04-30T21:11:28.672Z,12.00
2019-04-30T21:13:59.107Z,12.00
2019-04-30T21:16:28.507Z,11.90
2019-04-30T21:18:58.083Z,11.90
2019-04-30T21:21:28.808Z,11.90
2019-04-30T21:23:58.285Z,11.80
2019-04-30T21:26:27.601Z,11.70
2019-04-30T21:29:10.447Z,11.80
2019-04-30T21:31:29.647Z,11.70
2019-04-30T21:34:06.376Z,11.70
2019-04-30T21:36:35.687Z,11.80
2019-04-30T21:39:09.033Z,11.60
2019-04-30T21:41:39.583Z,11.70
2019-04-30T21:44:08.994Z,11.60
2019-04-30T21:46:39.525Z,11.50
2019-04-30T21:49:09.145Z,11.50
2019-04-30T21:51:40.119Z,11.50
2019-04-30T21:54:09.507Z,11.50
2019-04-30T21:56:39.210Z,11.40
2019-04-30T21:59:08.518Z,11.30
2019-04-30T22:01:38.386Z,11.30
2019-04-30T22:04:07.866Z,11.30
2019-04-30T22:06:37.171Z,11.30
2019-04-30T22:09:09.760Z,11.30
2019-04-30T22:11:39.601Z,11.30
2019-04-30T22:14:09.552Z,11.10
2019-04-30T22:16:39.804Z,11.10
2019-04-30T22:19:09.578Z,11.00
2019-04-30T22:21:39.618Z,11.00
2019-04-30T22:24:09.083Z,11.00
2019-04-30T22:26:38.467Z,10.90
2019-04-30T22:29:09.229Z,11.00
2019-04-30T22:31:39.637Z,11.00
2019-04-30T22:34:09.336Z,11.00
2019-04-30T22:36:42.680Z,11.00
2019-04-30T22:39:30.275Z,10.90
2019-04-30T22:42:30.556Z,10.90
2019-04-30T22:45:01.696Z,10.80
2019-04-30T22:47:30.997Z,10.70
2019-04-30T22:50:00.302Z,10.70
2019-04-30T22:52:29.649Z,10.80
2019-04-30T22:54:58.953Z,10.70
2019-04-30T22:57:28.254Z,10.70
2019-04-30T22:59:57.593Z,10.60
2019-04-30T23:02:37.989Z,10.60
2019-04-30T23:05:09.814Z,10.60
2019-04-30T23:07:39.361Z,10.60
2019-04-30T23:10:09.163Z,10.60
2019-04-30T23:12:38.876Z,10.60
2019-04-30T23:15:09.310Z,10.60
2019-04-30T23:17:38.636Z,10.60
2019-04-30T23:20:08.324Z,10.60
2019-04-30T23:22:37.623Z,10.60
2019-04-30T23:25:07.932Z,10.60
2019-04-30T23:27:37.279Z,10.50
2019-04-30T23:30:07.554Z,10.40
2019-04-30T23:32:36.853Z,10.40
2019-04-30T23:35:07.500Z,10.30
2019-04-30T23:37:36.890Z,10.30
2019-04-30T23:40:29.329Z,10.20
2019-04-30T23:42:58.977Z,10.10
2019-04-30T23:45:29.173Z,10.20
2019-04-30T23:47:58.552Z,10.10
2019-04-30T23:50:28.217Z,10.00
2019-04-30T23:52:57.515Z,10.10
2019-04-30T23:55:26.900Z,10.10
2019-04-30T23:57:56.202Z,10.00
